Time;durP1;ratioP1;P1;durP2;ratioP2;P2;SDS_P1;SDS_P2;PMS_P1;PMS_P2;Temp;Humidity;BMP_temperature;BMP_pressure;BME280_temperature;BME280_humidity;BME280_pressure;Samples;Min_cycle;Max_cycle;Signal;HPM_P1;HPM_P2
2021/09/04 00:00:25;;;;;;;24.80;16.55;;;;;;;16.43;77.82;101832.47;5053830;28;20494;-57
2021/09/04 00:02:53;;;;;;;25.92;16.30;;;;;;;16.34;78.22;101831.41;5071782;28;20059;-57
2021/09/04 00:05:22;;;;;;;24.65;15.02;;;;;;;16.37;78.43;101834.41;5071435;28;20134;-57
2021/09/04 00:07:50;;;;;;;25.38;16.42;;;;;;;16.40;77.43;101831.09;5054626;28;20051;-57
2021/09/04 00:10:20;;;;;;;25.30;15.85;;;;;;;16.28;78.37;101832.50;5057510;28;20033;-58
2021/09/04 00:13:08;;;;;;;25.90;15.55;;;;;;;16.23;78.88;101829.78;5057502;28;20441;-56
2021/09/04 00:15:36;;;;;;;24.67;16.10;;;;;;;16.26;77.98;101829.22;5075509;28;20033;-57
2021/09/04 00:18:04;;;;;;;24.40;15.70;;;;;;;16.22;78.43;101822.66;5075296;28;20125;-57
2021/09/04 00:20:31;;;;;;;27.23;16.38;;;;;;;16.18;78.27;101828.69;5075163;28;20044;-57
2021/09/04 00:22:59;;;;;;;28.50;17.08;;;;;;;16.21;78.30;101818.25;5075128;28;20090;-56
2021/09/04 00:25:27;;;;;;;24.90;15.88;;;;;;;16.05;78.83;101826.56;5074844;28;20044;-56
2021/09/04 00:27:56;;;;;;;26.50;15.15;;;;;;;16.21;78.59;101815.50;5057403;28;20036;-53
2021/09/04 00:30:24;;;;;;;22.02;14.52;;;;;;;16.30;77.85;101819.31;5075332;28;20402;-57
2021/09/04 00:32:52;;;;;;;26.02;16.25;;;;;;;16.11;78.05;101819.94;5057132;28;20510;-57
2021/09/04 00:35:21;;;;;;;26.50;15.13;;;;;;;15.87;79.17;101821.66;5057340;28;20044;-57
2021/09/04 00:37:51;;;;;;;23.88;15.10;;;;;;;15.78;79.39;101818.69;5056522;28;20098;-54
2021/09/04 00:40:20;;;;;;;24.13;14.68;;;;;;;15.71;79.56;101816.22;5057094;28;20040;-56
2021/09/04 00:42:51;;;;;;;24.77;14.85;;;;;;;15.64;79.99;101807.41;5056818;28;20044;-58
2021/09/04 00:45:22;;;;;;;23.83;14.95;;;;;;;15.60;79.93;101806.31;5057065;28;20052;-53
2021/09/04 00:48:01;;;;;;;24.15;15.45;;;;;;;15.60;79.94;101808.25;5056810;28;20135;-55
2021/09/04 00:50:48;;;;;;;25.10;15.50;;;;;;;15.72;79.68;101815.09;5042260;28;20059;-56
2021/09/04 00:53:29;;;;;;;24.67;15.30;;;;;;;15.63;79.77;101805.75;5056722;28;20139;-57
2021/09/04 00:56:04;;;;;;;22.33;14.35;;;;;;;15.72;79.42;101808.78;5056588;28;20079;-57
2021/09/04 00:58:42;;;;;;;21.55;14.68;;;;;;;15.86;79.58;101809.03;5056543;28;20059;-56
2021/09/04 01:01:31;;;;;;;23.58;14.43;;;;;;;15.92;78.57;101802.41;5072045;28;20441;-56
2021/09/04 01:04:19;;;;;;;23.33;15.65;;;;;;;15.85;78.32;101805.47;5048283;28;20049;-53
2021/09/04 01:07:07;;;;;;;23.83;14.50;;;;;;;15.85;78.25;101801.88;5074117;28;20051;-52
2021/09/04 01:09:55;;;;;;;25.35;14.50;;;;;;;15.77;79.03;101806.84;5074248;28;20052;-54
2021/09/04 01:12:42;;;;;;;26.75;16.48;;;;;;;15.57;79.46;101804.13;5071781;28;20063;-54
2021/09/04 01:15:30;;;;;;;24.92;14.75;;;;;;;15.48;80.38;101814.03;5074346;28;20056;-56
2021/09/04 01:18:18;;;;;;;23.70;14.38;;;;;;;15.49;79.72;101811.00;5058723;28;20041;-55
2021/09/04 01:21:08;;;;;;;25.92;16.45;;;;;;;15.52;79.40;101806.88;5043903;28;20043;-52
2021/09/04 01:23:55;;;;;;;23.45;13.18;;;;;;;15.52;79.42;101809.63;5071847;28;20452;-55
2021/09/04 01:26:43;;;;;;;27.88;14.93;;;;;;;15.32;79.99;101805.81;5071321;28;20064;-57
2021/09/04 01:29:31;;;;;;;22.10;14.10;;;;;;;15.29;80.65;101800.84;5056848;28;20045;-56
2021/09/04 01:32:09;;;;;;;24.05;15.73;;;;;;;15.39;80.20;101802.78;5056109;28;20045;-56
2021/09/04 01:35:04;;;;;;;25.40;15.65;;;;;;;15.52;79.73;101799.47;5071247;28;20059;-56
2021/09/04 01:37:33;;;;;;;;;;;;;;;15.61;78.74;101794.25;5075699;28;20070;-54
2021/09/04 01:40:01;;;;;;;27.20;15.65;;;;;;;15.50;79.20;101792.59;5077480;28;19924;-54
2021/09/04 01:42:28;;;;;;;21.58;14.35;;;;;;;15.36;79.74;101786.03;5077107;28;20091;-54
2021/09/04 01:44:56;;;;;;;19.42;13.07;;;;;;;15.28;80.17;101785.50;5077235;28;20032;-54
2021/09/04 01:47:26;;;;;;;23.67;13.68;;;;;;;15.37;80.32;101773.94;5074275;28;20083;-56
2021/09/04 01:49:55;;;;;;;25.23;15.90;;;;;;;15.41;79.55;101783.28;5073457;28;20723;-56
2021/09/04 01:52:23;;;;;;;25.95;15.52;;;;;;;15.28;79.84;101787.44;5056051;28;20036;-57
2021/09/04 01:54:51;;;;;;;19.20;12.75;;;;;;;15.17;80.79;101781.09;5066822;28;20495;-57
2021/09/04 01:57:20;;;;;;;24.02;15.75;;;;;;;15.22;80.32;101778.34;5068149;28;20065;-57
2021/09/04 01:59:48;;;;;;;23.50;14.30;;;;;;;15.11;80.89;101776.72;5055580;28;20391;-56
2021/09/04 02:02:16;;;;;;;23.50;15.18;;;;;;;14.99;81.43;101778.94;5055293;28;20052;-56
2021/09/04 02:04:45;;;;;;;22.63;15.50;;;;;;;14.99;81.18;101778.94;5055095;28;20259;-53
2021/09/04 02:07:13;;;;;;;24.58;15.05;;;;;;;14.97;81.29;101781.13;5055313;28;20410;-55
2021/09/04 02:09:41;;;;;;;26.60;15.57;;;;;;;14.93;81.31;101780.81;5055547;28;20581;-57
2021/09/04 02:12:12;;;;;;;22.30;14.75;;;;;;;14.90;81.38;101768.47;5055070;28;20044;-57
2021/09/04 02:14:54;;;;;;;25.17;14.93;;;;;;;14.85;81.44;101768.47;5055447;28;20059;-55
2021/09/04 02:17:43;;;;;;;24.70;16.40;;;;;;;14.90;81.13;101757.50;5065774;28;20080;-58
2021/09/04 02:20:31;;;;;;;23.80;14.90;;;;;;;14.76;81.73;101759.13;5053213;28;20048;-56
2021/09/04 02:23:03;;;;;;;26.30;16.30;;;;;;;14.78;82.06;101756.94;5055059;28;20067;-57
2021/09/04 02:25:51;;;;;;;24.90;14.63;;;;;;;14.80;81.92;101754.75;5070184;28;20049;-58
2021/09/04 02:28:21;;;;;;;22.65;15.57;;;;;;;14.91;82.05;101761.91;5055079;28;20071;-57
2021/09/04 02:31:10;;;;;;;23.40;16.10;;;;;;;14.95;80.84;101761.34;5068948;28;20051;-57
2021/09/04 02:33:58;;;;;;;21.67;12.85;;;;;;;14.77;81.87;101755.31;5070230;28;20044;-57
2021/09/04 02:36:46;;;;;;;22.05;15.43;;;;;;;14.56;82.59;101764.63;5049779;28;20053;-54
2021/09/04 02:39:13;;;;;;;24.45;16.13;;;;;;;14.59;83.00;101773.09;5054612;28;20041;-54
2021/09/04 02:42:04;;;;;;;23.08;15.75;;;;;;;14.72;82.44;101769.03;5072655;28;20052;-57
2021/09/04 02:44:40;;;;;;;;;;;;;;;14.79;81.59;101763.25;5055075;28;20056;-57
2021/09/04 02:47:27;;;;;;;26.15;16.27;;;;;;;14.83;81.38;101767.94;5055020;28;20476;-56
2021/09/04 02:49:56;;;;;;;27.60;16.65;;;;;;;14.78;81.04;101762.44;5054616;28;20037;-54
2021/09/04 02:52:44;;;;;;;23.70;14.73;;;;;;;14.69;81.46;101764.06;5069276;28;20045;-56
2021/09/04 02:55:13;;;;;;;23.27;15.55;;;;;;;14.70;81.53;101765.72;5054455;28;20041;-57
2021/09/04 02:57:44;;;;;;;25.38;15.10;;;;;;;14.70;82.02;101763.00;5072683;28;20045;-51
2021/09/04 03:00:13;;;;;;;25.30;16.17;;;;;;;14.63;81.87;101765.19;5072286;28;20045;-54
2021/09/04 03:02:45;;;;;;;21.92;16.13;;;;;;;14.66;82.06;101759.94;5072317;28;20048;-53
2021/09/04 03:05:13;;;;;;;24.63;16.52;;;;;;;14.71;81.19;101756.41;5072005;28;20461;-57
2021/09/04 03:07:41;;;;;;;30.08;16.52;;;;;;;14.65;81.69;101760.25;5072632;28;20064;-58
2021/09/04 03:10:09;;;;;;;27.60;16.02;;;;;;;14.66;81.38;101754.47;5071752;28;20414;-55
2021/09/04 03:12:37;;;;;;;29.02;17.08;;;;;;;14.37;82.60;101762.34;5072248;28;20052;-56
2021/09/04 03:15:06;;;;;;;24.77;16.35;;;;;;;14.43;82.67;101755.78;5071745;28;20059;-56
2021/09/04 03:17:35;;;;;;;30.55;17.35;;;;;;;14.52;81.93;101761.53;5072111;28;20037;-55
2021/09/04 03:20:06;;;;;;;25.00;17.17;;;;;;;14.49;82.25;101742.91;5071991;28;20123;-57
2021/09/04 03:22:34;;;;;;;27.13;17.98;;;;;;;14.45;82.16;101747.28;5072118;28;20045;-58
2021/09/04 03:25:04;;;;;;;28.17;18.55;;;;;;;14.35;82.61;101742.59;5053757;28;20056;-57
2021/09/04 03:27:33;;;;;;;27.55;17.52;;;;;;;14.09;84.05;101740.88;5071845;28;20056;-57
2021/09/04 03:30:04;;;;;;;33.53;19.15;;;;;;;13.98;84.86;101748.25;5071728;28;20123;-56
2021/09/04 03:32:33;;;;;;;29.52;18.30;;;;;;;13.98;85.42;101740.03;5053890;28;20048;-57
2021/09/04 03:35:11;;;;;;;28.83;18.85;;;;;;;14.07;84.93;101750.22;5054283;28;20395;-56
2021/09/04 03:37:41;;;;;;;29.83;19.73;;;;;;;14.06;85.17;101761.44;5072068;28;20480;-55
2021/09/04 03:40:28;;;;;;;26.45;18.92;;;;;;;14.12;85.21;101749.41;5070660;28;20060;-57
2021/09/04 03:43:01;;;;;;;28.17;18.85;;;;;;;14.17;84.64;101762.31;5057159;28;20446;-56
2021/09/04 03:45:51;;;;;;;28.98;19.45;;;;;;;14.18;85.42;101759.28;5072917;28;20102;-56
2021/09/04 03:48:22;;;;;;;30.17;19.83;;;;;;;14.30;84.65;101770.00;5058077;28;20047;-57
2021/09/04 03:51:11;;;;;;;34.15;19.55;;;;;;;14.32;84.47;101769.75;5073465;28;20376;-55
2021/09/04 03:53:38;;;;;;;34.95;21.45;;;;;;;14.15;85.19;101767.22;5075984;28;20421;-57
2021/09/04 03:56:27;;;;;;;24.48;17.50;;;;;;;14.09;85.97;101769.09;5072777;28;20059;-57
2021/09/04 03:58:56;;;;;;;25.48;17.33;;;;;;;14.09;85.91;101768.28;5057903;28;20044;-56
2021/09/04 04:01:45;;;;;;;27.98;19.77;;;;;;;13.90;86.68;101763.25;5073335;28;20044;-56
2021/09/04 04:04:33;;;;;;;31.52;19.10;;;;;;;13.91;87.21;101770.41;5073241;28;20044;-57
2021/09/04 04:07:22;;;;;;;31.77;20.63;;;;;;;13.97;86.78;101769.31;5075719;28;20580;-56
2021/09/04 04:10:10;;;;;;;28.73;19.23;;;;;;;14.10;86.88;101769.94;5073531;28;20066;-57
2021/09/04 04:12:57;;;;;;;31.05;20.73;;;;;;;14.02;86.41;101774.84;5072858;28;20138;-56
2021/09/04 04:15:45;;;;;;;28.25;18.15;;;;;;;13.95;87.45;101779.75;5046009;28;20095;-56
2021/09/04 04:18:35;;;;;;;33.95;19.20;;;;;;;13.89;87.21;101772.59;5072752;28;20048;-57
2021/09/04 04:21:22;;;;;;;31.23;19.95;;;;;;;13.80;87.71;101779.66;5060866;28;20044;-56
2021/09/04 04:24:10;;;;;;;28.88;20.33;;;;;;;13.92;87.44;101783.00;5072469;28;20048;-57
2021/09/04 04:27:01;;;;;;;33.78;20.88;;;;;;;13.99;87.42;101778.09;5075235;28;20406;-56
2021/09/04 04:29:49;;;;;;;32.38;22.48;;;;;;;14.05;86.66;101788.00;5057706;28;20446;-57
2021/09/04 04:32:37;;;;;;;30.48;21.38;;;;;;;14.05;86.59;101778.97;5072590;28;20048;-58
2021/09/04 04:35:28;;;;;;;34.00;22.20;;;;;;;13.88;87.39;101781.91;5057764;28;20044;-58
2021/09/04 04:38:17;;;;;;;31.17;21.05;;;;;;;13.95;87.21;101792.59;5075102;28;20127;-57
2021/09/04 04:41:05;;;;;;;31.45;21.98;;;;;;;13.92;87.13;101793.97;5072301;28;20052;-56
2021/09/04 04:43:53;;;;;;;23.20;15.23;;;;;;;13.97;87.51;101799.47;5071629;28;20127;-58
2021/09/04 04:46:41;;;;;;;25.55;18.70;;;;;;;14.02;87.16;101794.03;5074975;28;20053;-57
2021/09/04 04:49:29;;;;;;;28.40;19.83;;;;;;;14.09;86.67;101792.94;5074508;28;20074;-57
2021/09/04 04:52:17;;;;;;;31.25;21.33;;;;;;;14.06;86.99;101799.78;5059664;28;20503;-56
2021/09/04 04:55:05;;;;;;;31.00;21.77;;;;;;;14.04;87.05;101802.78;5047924;28;20075;-55
2021/09/04 04:57:53;;;;;;;33.15;21.30;;;;;;;14.01;86.69;101803.31;5073972;28;20044;-56
2021/09/04 05:00:42;;;;;;;29.77;21.65;;;;;;;14.00;87.66;101804.44;5074464;28;20060;-58
2021/09/04 05:03:30;;;;;;;29.73;20.52;;;;;;;13.93;87.68;101801.09;5047403;28;20080;-55
2021/09/04 05:06:00;;;;;;;28.63;19.60;;;;;;;13.99;87.89;101802.75;5056533;28;20095;-54
2021/09/04 05:08:28;;;;;;;30.02;21.45;;;;;;;13.98;87.42;101805.78;5056546;28;20049;-57
2021/09/04 05:10:56;;;;;;;24.20;16.92;;;;;;;14.01;87.67;101808.81;5074343;28;20037;-58
2021/09/04 05:13:27;;;;;;;27.42;20.70;;;;;;;14.02;86.86;101802.25;5056682;28;20119;-58
2021/09/04 05:15:55;;;;;;;28.65;19.48;;;;;;;13.96;87.64;101810.72;5074295;28;20048;-57
2021/09/04 05:18:23;;;;;;;27.55;19.83;;;;;;;13.92;87.96;101810.41;5074170;28;20466;-57
2021/09/04 05:20:52;;;;;;;30.25;21.77;;;;;;;13.89;88.24;101816.41;5074169;28;20045;-58
2021/09/04 05:23:20;;;;;;;30.33;19.95;;;;;;;13.88;88.45;101803.81;5074284;28;20058;-56
2021/09/04 05:25:49;;;;;;;29.48;19.70;;;;;;;13.82;88.87;101811.16;5073263;28;20423;-56
2021/09/04 05:28:18;;;;;;;30.17;22.30;;;;;;;13.82;89.05;101808.44;5036719;28;20454;-57
2021/09/04 05:30:46;;;;;;;30.92;21.88;;;;;;;13.93;88.41;101817.53;5035814;28;20041;-56
2021/09/04 05:33:14;;;;;;;30.70;20.98;;;;;;;13.99;88.31;101812.91;5053751;28;20125;-57
2021/09/04 05:35:43;;;;;;;27.27;19.60;;;;;;;14.00;88.01;101818.13;5035869;28;20049;-55
2021/09/04 05:38:11;;;;;;;30.02;21.80;;;;;;;13.87;88.51;101818.59;5053572;28;20037;-54
2021/09/04 05:40:40;;;;;;;28.52;20.55;;;;;;;13.83;88.75;101818.31;4996709;28;20107;-54
2021/09/04 05:43:11;;;;;;;26.92;19.73;;;;;;;13.81;89.48;101819.69;5035668;28;20124;-53
2021/09/04 05:45:40;;;;;;;28.08;19.95;;;;;;;13.79;89.69;101821.84;5035462;28;20045;-55
2021/09/04 05:48:21;;;;;;;25.77;18.02;;;;;;;13.80;88.92;101823.50;5035818;28;20055;-57
2021/09/04 05:51:09;;;;;;;25.27;19.10;;;;;;;13.62;90.16;101828.31;5036039;28;20123;-57
2021/09/04 05:53:38;;;;;;;25.55;18.80;;;;;;;13.65;90.54;101824.22;5053026;28;20049;-59
2021/09/04 05:56:26;;;;;;;25.63;18.27;;;;;;;13.84;89.85;101830.09;5050472;28;20055;-57
2021/09/04 05:58:54;;;;;;;28.38;20.25;;;;;;;13.73;89.60;101826.44;5053469;28;20052;-58
2021/09/04 06:01:38;;;;;;;27.98;20.30;;;;;;;13.39;91.85;101828.69;5035677;28;20048;-58
2021/09/04 06:04:26;;;;;;;31.98;21.42;;;;;;;13.40;91.77;101820.22;5063237;28;20047;-58
2021/09/04 06:07:10;;;;;;;23.20;16.52;;;;;;;13.50;91.87;101815.91;5040622;28;20100;-53
2021/09/04 06:09:58;;;;;;;27.88;20.05;;;;;;;13.56;91.65;101826.63;5069718;28;20055;-58
2021/09/04 06:12:45;;;;;;;24.88;17.80;;;;;;;13.75;90.60;101826.19;5058042;28;20134;-57
2021/09/04 06:15:14;;;;;;;22.90;17.38;;;;;;;13.79;90.52;101827.34;5054917;28;20051;-58
2021/09/04 06:18:02;;;;;;;25.13;17.88;;;;;;;13.70;90.67;101820.69;5070563;28;20123;-59
2021/09/04 06:20:49;;;;;;;25.33;18.90;;;;;;;13.89;89.80;101821.91;5072815;28;20048;-59
2021/09/04 06:23:37;;;;;;;26.95;18.85;;;;;;;13.85;89.54;101821.63;5072334;28;20411;-56
2021/09/04 06:26:24;;;;;;;22.25;16.42;;;;;;;13.93;89.73;101822.22;5069366;28;20056;-56
2021/09/04 06:28:52;;;;;;;27.05;18.70;;;;;;;13.98;89.31;101831.28;5055089;28;20498;-57
2021/09/04 06:31:40;;;;;;;27.08;18.27;;;;;;;13.91;88.97;101821.66;5070097;28;20430;-58
2021/09/04 06:34:19;;;;;;;24.77;17.92;;;;;;;13.83;89.87;101828.47;4343613;28;9999917;-58
2021/09/04 06:37:07;;;;;;;21.38;16.13;;;;;;;13.83;90.30;101822.97;5052951;28;20048;-59
2021/09/04 06:39:55;;;;;;;22.60;16.38;;;;;;;13.85;89.61;101829.00;5069476;28;20056;-58
2021/09/04 06:42:27;;;;;;;21.15;16.13;;;;;;;13.73;90.73;101831.94;5070354;28;20036;-58
2021/09/04 06:44:54;;;;;;;24.83;15.73;;;;;;;13.69;90.77;101830.00;5070219;28;20051;-60
2021/09/04 06:47:22;;;;;;;20.50;14.90;;;;;;;13.77;90.86;101837.72;5070523;28;20041;-58
2021/09/04 06:49:49;;;;;;;24.38;15.23;;;;;;;13.84;90.85;101835.56;5070432;28;20127;-60
2021/09/04 06:52:17;;;;;;;23.50;17.17;;;;;;;13.86;90.23;101838.88;5063311;28;20040;-59
2021/09/04 06:54:45;;;;;;;22.52;16.35;;;;;;;13.87;90.73;101835.03;5068046;28;20051;-58
2021/09/04 06:57:12;;;;;;;24.55;16.75;;;;;;;13.80;90.21;101834.44;5038749;28;20060;-59
2021/09/04 06:59:40;;;;;;;23.52;16.52;;;;;;;13.76;90.91;101838.81;5049999;28;20037;-58
2021/09/04 07:02:07;;;;;;;27.52;17.17;;;;;;;13.78;91.18;101842.09;5032481;28;20060;-60
2021/09/04 07:04:35;;;;;;;22.95;15.45;;;;;;;13.56;92.24;101845.78;5062901;28;20056;-57
2021/09/04 07:07:04;;;;;;;24.73;17.52;;;;;;;13.59;92.12;101834.34;5069862;28;20041;-59
2021/09/04 07:09:32;;;;;;;23.23;16.55;;;;;;;13.58;91.98;101843.63;5051159;28;20045;-57
2021/09/04 07:12:01;;;;;;;19.90;14.38;;;;;;;13.65;91.97;101843.41;5052224;28;20048;-56
2021/09/04 07:14:31;;;;;;;24.48;17.05;;;;;;;13.73;91.54;101850.28;5052730;28;20048;-57
2021/09/04 07:17:01;;;;;;;26.05;17.60;;;;;;;13.71;91.42;101849.72;5054055;28;20036;-57
2021/09/04 07:19:33;;;;;;;22.75;15.38;;;;;;;13.72;91.43;101845.91;5055079;28;20044;-56
2021/09/04 07:22:02;;;;;;;21.88;14.73;;;;;;;13.74;92.18;101843.75;5055683;28;20044;-58
2021/09/04 07:24:39;;;;;;;21.15;15.65;;;;;;;13.73;91.46;101842.06;5055338;28;20072;-54
2021/09/04 07:27:28;;;;;;;22.35;16.75;;;;;;;13.74;91.54;101851.97;5069426;28;20097;-56
2021/09/04 07:30:02;;;;;;;24.25;17.30;;;;;;;13.73;92.16;101851.09;5054109;28;20044;-57
2021/09/04 07:32:50;;;;;;;24.17;17.02;;;;;;;13.70;92.14;101845.34;5070448;28;20040;-57
2021/09/04 07:35:29;;;;;;;25.10;17.23;;;;;;;13.77;92.45;101851.41;5053746;28;20048;-58
2021/09/04 07:38:08;;;;;;;23.10;16.60;;;;;;;13.77;91.75;101856.91;5038241;28;20503;-58
2021/09/04 07:40:56;;;;;;;24.80;15.50;;;;;;;13.70;92.10;101854.38;5069075;28;20414;-52
2021/09/04 07:43:43;;;;;;;24.23;16.60;;;;;;;13.67;92.08;101865.06;5072082;28;20055;-58
2021/09/04 07:46:31;;;;;;;21.95;17.20;;;;;;;13.58;92.59;101865.53;5045399;28;20053;-54
2021/09/04 07:49:18;;;;;;;27.63;16.02;;;;;;;13.61;93.02;101865.03;5069022;28;20048;-55
2021/09/04 07:51:52;;;;;;;28.70;15.00;;;;;;;13.59;92.75;101867.19;5053484;28;20131;-57
2021/09/04 07:54:40;;;;;;;27.75;14.15;;;;;;;13.63;92.57;101864.72;5068825;28;20041;-60
2021/09/04 07:57:27;;;;;;;24.60;15.55;;;;;;;13.73;92.18;101873.00;5071531;28;20052;-58
2021/09/04 07:59:56;;;;;;;30.85;16.27;;;;;;;13.86;92.13;101869.00;5043957;28;20033;-59
2021/09/04 08:02:26;;;;;;;26.67;16.73;;;;;;;13.93;91.61;101861.38;5071632;28;20068;-59
2021/09/04 08:04:54;;;;;;;27.35;14.75;;;;;;;14.02;90.90;101869.91;5070994;28;20072;-57
2021/09/04 08:07:22;;;;;;;26.23;16.55;;;;;;;13.97;90.81;101867.97;5071255;28;20094;-58
2021/09/04 08:09:50;;;;;;;24.17;16.30;;;;;;;13.87;91.31;101865.16;5071791;28;20124;-58
2021/09/04 08:12:17;;;;;;;25.15;17.33;;;;;;;13.68;92.19;101866.69;5057546;28;20115;-57
2021/09/04 08:14:45;;;;;;;24.73;16.83;;;;;;;13.60;92.88;101873.50;5071445;28;20075;-58
2021/09/04 08:17:13;;;;;;;25.35;16.95;;;;;;;13.59;93.24;101860.91;5071371;28;20060;-58
2021/09/04 08:19:41;;;;;;;25.08;16.00;;;;;;;13.68;92.98;101866.69;5071422;28;20037;-57
2021/09/04 08:22:08;;;;;;;24.40;15.45;;;;;;;13.75;92.69;101865.38;5071238;28;20092;-59
2021/09/04 08:24:37;;;;;;;26.10;16.42;;;;;;;13.88;92.50;101863.25;5071224;28;20094;-59
2021/09/04 08:27:05;;;;;;;24.77;17.13;;;;;;;13.91;92.14;101863.56;5036759;28;20503;-59
2021/09/04 08:29:33;;;;;;;24.98;17.75;;;;;;;13.90;92.22;101872.84;5055724;28;20049;-60
2021/09/04 08:32:01;;;;;;;26.40;18.30;;;;;;;13.87;92.70;101873.38;5075061;28;20045;-58
2021/09/04 08:34:32;;;;;;;27.55;17.67;;;;;;;13.89;92.64;101876.69;5057032;28;20270;-56
2021/09/04 08:37:01;;;;;;;27.35;19.67;;;;;;;13.91;92.06;101874.53;4687084;28;9999744;-59
2021/09/04 08:39:34;;;;;;;27.17;18.02;;;;;;;13.92;92.07;101876.16;5028358;28;20045;-57
2021/09/04 08:42:05;;;;;;;27.95;18.73;;;;;;;13.88;92.00;101877.78;5054868;28;20060;-58
2021/09/04 08:44:53;;;;;;;25.27;16.90;;;;;;;13.88;92.07;101875.06;5032612;28;20483;-54
2021/09/04 08:47:23;;;;;;;28.42;19.08;;;;;;;13.90;92.02;101881.06;5054716;28;20052;-57
2021/09/04 08:50:11;;;;;;;29.25;19.58;;;;;;;13.90;91.78;101878.34;5054637;28;20055;-58
2021/09/04 08:52:59;;;;;;;28.23;18.83;;;;;;;13.88;91.66;101883.28;5069812;28;20056;-57
2021/09/04 08:55:38;;;;;;;25.33;14.90;;;;;;;13.79;91.97;101880.19;5072432;28;20637;-58
2021/09/04 08:58:26;;;;;;;30.60;19.25;;;;;;;13.86;91.82;101877.22;5048249;28;20052;-57
2021/09/04 09:00:53;;;;;;;27.63;17.25;;;;;;;13.85;91.15;101881.03;5071984;28;20040;-54
2021/09/04 09:03:43;;;;;;;23.63;15.95;;;;;;;13.86;91.26;101874.50;5071659;28;20055;-58
2021/09/04 09:06:50;;;;;;;27.77;19.23;;;;;;;13.96;91.20;101876.47;5063637;28;20067;-59
2021/09/04 09:09:37;;;;;;;33.55;18.05;;;;;;;14.10;90.33;101871.34;5049337;28;20049;-58
2021/09/04 09:12:12;;;;;;;29.13;17.83;;;;;;;14.19;90.06;101869.72;5052012;28;20040;-57
2021/09/04 09:14:59;;;;;;;22.70;16.63;;;;;;;14.19;90.00;101872.47;5049350;28;20045;-54
2021/09/04 09:17:32;;;;;;;28.27;18.00;;;;;;;14.23;89.61;101876.34;5033922;28;20049;-55
2021/09/04 09:20:25;;;;;;;25.40;16.55;;;;;;;14.25;89.21;101874.16;5045505;28;20499;-55
2021/09/04 09:22:53;;;;;;;25.48;14.50;;;;;;;14.39;89.38;101867.09;5034100;28;20075;-58
2021/09/04 09:25:21;;;;;;;23.52;16.70;;;;;;;14.42;88.02;101874.78;5051233;28;20139;-56
2021/09/04 09:28:13;;;;;;;22.33;14.85;;;;;;;14.38;88.23;101868.19;5051978;28;20051;-58
2021/09/04 09:30:46;;;;;;;28.38;17.35;;;;;;;14.43;87.78;101873.69;5049584;28;20115;-56
2021/09/04 09:33:20;;;;;;;24.42;15.07;;;;;;;14.49;87.55;101872.59;5051421;28;20557;-54
2021/09/04 09:35:50;;;;;;;26.15;17.50;;;;;;;14.61;87.30;101874.34;5049020;28;20048;-57
2021/09/04 09:38:20;;;;;;;27.23;17.40;;;;;;;14.64;86.97;101877.34;5033269;28;20045;-55
2021/09/04 09:40:49;;;;;;;24.48;16.02;;;;;;;14.57;86.61;101876.78;5045930;28;20041;-54
2021/09/04 09:43:21;;;;;;;26.67;16.90;;;;;;;14.60;87.02;101872.66;5051509;28;20037;-54
2021/09/04 09:45:55;;;;;;;21.20;10.88;;;;;;;14.69;86.98;101874.63;5034191;28;20071;-55
2021/09/04 09:48:28;;;;;;;27.40;15.70;;;;;;;14.81;86.84;101876.31;5033570;28;20056;-57
2021/09/04 09:50:58;;;;;;;20.88;13.30;;;;;;;14.86;85.74;101876.31;5033521;28;20037;-57
2021/09/04 09:53:27;;;;;;;22.83;14.13;;;;;;;14.90;85.49;101881.00;5033650;28;20052;-58
2021/09/04 09:55:58;;;;;;;23.85;15.05;;;;;;;14.97;85.28;101874.44;5033324;28;20052;-58
2021/09/04 09:58:29;;;;;;;29.23;18.17;;;;;;;14.93;85.23;101878.81;5017240;28;20099;-58
2021/09/04 10:00:59;;;;;;;17.48;12.30;;;;;;;14.95;85.25;101874.69;5032797;28;20041;-56
2021/09/04 10:03:31;;;;;;;19.95;13.05;;;;;;;14.97;85.68;101874.44;5037141;28;20066;-56
2021/09/04 10:06:04;;;;;;;20.15;12.30;;;;;;;15.05;85.53;101868.38;5053568;28;20507;-57
2021/09/04 10:08:52;;;;;;;24.52;15.23;;;;;;;15.11;84.86;101872.81;5071202;28;20048;-58
2021/09/04 10:11:35;;;;;;;24.45;16.00;;;;;;;15.09;83.79;101878.56;5038527;28;20044;-57
2021/09/04 10:14:23;;;;;;;19.67;14.27;;;;;;;15.00;84.18;101874.69;5049978;28;20040;-55
2021/09/04 10:17:11;;;;;;;21.02;14.35;;;;;;;15.00;84.25;101884.84;5069723;28;20044;-58
2021/09/04 10:19:44;;;;;;;21.02;14.68;;;;;;;15.03;84.20;101881.56;5054289;28;20047;-57
2021/09/04 10:22:31;;;;;;;22.38;15.35;;;;;;;15.00;84.31;101880.19;5043661;28;20050;-54
2021/09/04 10:25:02;;;;;;;22.33;14.30;;;;;;;15.02;83.85;101879.91;5070007;28;20534;-57
2021/09/04 10:27:50;;;;;;;21.17;14.10;;;;;;;14.99;83.96;101872.25;5044551;28;20067;-54
2021/09/04 10:30:38;;;;;;;22.35;13.45;;;;;;;15.02;83.85;101872.50;5052406;28;20055;-59
2021/09/04 10:33:26;;;;;;;21.92;14.32;;;;;;;15.09;83.44;101866.75;5070366;28;20071;-58
2021/09/04 10:36:15;;;;;;;21.95;14.35;;;;;;;15.16;83.71;101870.06;5042452;28;20069;-58
2021/09/04 10:39:05;;;;;;;29.40;17.17;;;;;;;15.23;83.37;101862.38;5051836;28;20058;-53
2021/09/04 10:41:52;;;;;;;29.17;18.40;;;;;;;15.28;83.62;101870.63;5067870;28;20080;-53
2021/09/04 10:44:26;;;;;;;21.55;13.85;;;;;;;15.32;83.54;101865.38;5052476;28;20040;-58
2021/09/04 10:46:53;;;;;;;26.42;16.40;;;;;;;15.32;83.37;101863.47;5070381;28;20560;-54
2021/09/04 10:49:41;;;;;;;19.75;13.80;;;;;;;15.36;83.29;101865.66;5070105;28;20037;-57
2021/09/04 10:52:10;;;;;;;27.45;17.15;;;;;;;15.45;83.06;101858.53;5069859;28;20537;-57
2021/09/04 10:54:38;;;;;;;52.33;35.88;;;;;;;15.51;82.35;101852.78;5052457;28;20407;-57
2021/09/04 10:57:14;;;;;;;23.70;14.85;;;;;;;15.58;82.82;101852.47;5070539;28;20044;-56
2021/09/04 11:00:03;;;;;;;23.27;15.77;;;;;;;15.57;82.30;101850.00;5069947;28;20069;-58
2021/09/04 11:02:53;;;;;;;31.60;22.73;;;;;;;15.66;82.19;101859.34;5069812;28;20063;-57
2021/09/04 11:05:41;;;;;;;28.25;21.35;;;;;;;15.72;81.41;101842.59;5068018;28;20070;-57
2021/09/04 11:08:14;;;;;;;21.10;12.77;;;;;;;15.78;81.95;101854.41;5070208;28;20387;-57
2021/09/04 11:10:43;;;;;;;20.35;14.18;;;;;;;15.76;81.38;101846.44;5044367;28;20048;-54
2021/09/04 11:13:14;;;;;;;29.67;18.60;;;;;;;15.89;81.63;101846.94;5051859;28;20032;-56
2021/09/04 11:15:44;;;;;;;26.95;17.52;;;;;;;15.92;81.08;101843.63;5042244;28;20049;-57
2021/09/04 11:18:20;;;;;;;27.40;18.73;;;;;;;15.91;80.99;101847.50;5070411;28;20029;-57
2021/09/04 11:20:49;;;;;;;27.75;19.25;;;;;;;15.94;80.91;101836.75;5056517;28;20036;-57
2021/09/04 11:23:27;;;;;;;26.77;18.45;;;;;;;15.97;80.82;101833.47;5052436;28;20139;-58
2021/09/04 11:26:15;;;;;;;26.60;17.38;;;;;;;15.96;79.98;101847.47;5071260;28;20052;-58
2021/09/04 11:28:55;;;;;;;23.67;13.75;;;;;;;15.97;80.14;101838.16;5053569;28;20399;-56
2021/09/04 11:31:54;;;;;;;25.70;18.77;;;;;;;15.94;80.20;101841.44;5069455;28;20083;-54
2021/09/04 11:34:42;;;;;;;22.15;14.23;;;;;;;15.90;80.26;101837.63;5053924;28;20072;-56
2021/09/04 11:37:40;;;;;;;24.25;17.67;;;;;;;15.94;80.78;101845.00;5069263;28;20045;-55
2021/09/04 11:40:14;;;;;;;29.50;21.60;;;;;;;15.95;79.95;101840.34;5071703;28;20083;-57
2021/09/04 11:43:05;;;;;;;28.42;19.90;;;;;;;15.96;80.62;101836.50;5054580;28;20045;-57
2021/09/04 11:46:03;;;;;;;28.92;19.83;;;;;;;16.06;80.07;101830.94;5069168;28;20049;-56
2021/09/04 11:48:53;;;;;;;30.98;20.65;;;;;;;16.13;79.81;101830.66;5056813;28;20098;-56
2021/09/04 11:51:21;;;;;;;25.50;19.25;;;;;;;16.22;80.29;101841.91;5053773;28;20037;-53
2021/09/04 11:54:09;;;;;;;25.85;18.35;;;;;;;16.29;79.46;101836.94;5071613;28;20053;-57